PGT362 LROP-LTFJ
Flight info
| Callsign | PGT362 |
|---|---|
| Flight time | 0h 57m |
| Altitude | 37000 |
| Route | IDARU DCT NONQE DCT MAXOV DCT MATEL L620 RIXEN UL620 GINLI |
| Aircraft | A320/M-SDE3FGHIRWY/LB1 |
Departure
| Time | 2026-04-30 21:58 |
|---|---|
| Airport | Bucharest Henri Coandă International Airport (LROP) |
Arrival
| Time | 2026-04-30 22:55 |
|---|---|
| Airport | Istanbul Sabiha Gökçen International Airport (LTFJ) |
| Time | Latitude | Longitude | Altitude | Speed | Heading |
|---|---|---|---|---|---|
| 2026-04-30 21:23 | 44.57030 | 26.08197 | 323 ft | 0 kts | 354° |
| 2026-04-30 21:48 | 44.57026 | 26.08198 | 321 ft | 3 kts | 354° |
| 2026-04-30 21:48 | 44.57000 | 26.08202 | 322 ft | 4 kts | 354° |
| 2026-04-30 21:48 | 44.56973 | 26.08206 | 321 ft | 4 kts | 354° |
| 2026-04-30 21:48 | 44.56951 | 26.08214 | 320 ft | 4 kts | 306° |
| 2026-04-30 21:49 | 44.56945 | 26.08243 | 323 ft | 1 kts | 264° |
| 2026-04-30 21:49 | 44.56946 | 26.08267 | 321 ft | 0 kts | 264° |
| 2026-04-30 21:52 | 44.56946 | 26.08262 | 323 ft | 1 kts | 264° |
| 2026-04-30 21:52 | 44.56943 | 26.08222 | 323 ft | 7 kts | 264° |
| 2026-04-30 21:53 | 44.56938 | 26.08156 | 323 ft | 6 kts | 264° |
| 2026-04-30 21:53 | 44.56933 | 26.08088 | 323 ft | 8 kts | 264° |
| 2026-04-30 21:53 | 44.56925 | 26.08016 | 323 ft | 7 kts | 251° |
| 2026-04-30 21:53 | 44.56892 | 26.07984 | 323 ft | 5 kts | 190° |
| 2026-04-30 21:54 | 44.56857 | 26.07986 | 323 ft | 5 kts | 175° |
| 2026-04-30 21:54 | 44.56818 | 26.07992 | 323 ft | 9 kts | 174° |
| 2026-04-30 21:54 | 44.56757 | 26.07979 | 323 ft | 8 kts | 220° |
| 2026-04-30 21:54 | 44.56737 | 26.07908 | 323 ft | 7 kts | 254° |
| 2026-04-30 21:55 | 44.56720 | 26.07827 | 323 ft | 10 kts | 254° |
| 2026-04-30 21:55 | 44.56701 | 26.07729 | 322 ft | 8 kts | 254° |
| 2026-04-30 21:55 | 44.56675 | 26.07673 | 322 ft | 6 kts | 217° |
| 2026-04-30 21:55 | 44.56640 | 26.07665 | 323 ft | 4 kts | 173° |
| 2026-04-30 21:56 | 44.56612 | 26.07669 | 323 ft | 4 kts | 174° |
| 2026-04-30 21:56 | 44.56587 | 26.07673 | 323 ft | 5 kts | 174° |
| 2026-04-30 21:56 | 44.56522 | 26.07682 | 322 ft | 9 kts | 174° |
| 2026-04-30 21:56 | 44.56472 | 26.07690 | 323 ft | 6 kts | 171° |
| 2026-04-30 21:57 | 44.56464 | 26.07728 | 323 ft | 4 kts | 77° |
| 2026-04-30 21:57 | 44.56476 | 26.07842 | 322 ft | 38 kts | 83° |
| 2026-04-30 21:57 | 44.56532 | 26.08586 | 323 ft | 112 kts | 84° |
| 2026-04-30 21:57 | 44.56634 | 26.09950 | 368 ft | 163 kts | 84° |
| 2026-04-30 21:58 | 44.56750 | 26.11498 | 1148 ft | 158 kts | 83° |
| 2026-04-30 21:58 | 44.56867 | 26.13030 | 1971 ft | 158 kts | 82° |
| 2026-04-30 21:58 | 44.56989 | 26.14592 | 2522 ft | 173 kts | 81° |
| 2026-04-30 21:58 | 44.57129 | 26.16373 | 2905 ft | 196 kts | 81° |
| 2026-04-30 21:59 | 44.57287 | 26.18397 | 3383 ft | 221 kts | 81° |
| 2026-04-30 21:59 | 44.57461 | 26.20650 | 4003 ft | 241 kts | 81° |
| 2026-04-30 21:59 | 44.57636 | 26.23014 | 4998 ft | 245 kts | 81° |
| 2026-04-30 22:00 | 44.57198 | 26.27797 | 6919 ft | 267 kts | 118° |
| 2026-04-30 22:00 | 44.54785 | 26.31934 | 8742 ft | 279 kts | 127° |
| 2026-04-30 22:00 | 44.53514 | 26.34029 | 9651 ft | 285 kts | 128° |
| 2026-04-30 22:01 | 44.52221 | 26.36164 | 10518 ft | 291 kts | 129° |
| 2026-04-30 22:01 | 44.50860 | 26.38415 | 10888 ft | 314 kts | 129° |
| 2026-04-30 22:01 | 44.49391 | 26.40847 | 11212 ft | 337 kts | 129° |
| 2026-04-30 22:01 | 44.47855 | 26.43386 | 11860 ft | 345 kts | 129° |
| 2026-04-30 22:02 | 44.46287 | 26.45971 | 12663 ft | 350 kts | 129° |
| 2026-04-30 22:02 | 44.44707 | 26.48585 | 13456 ft | 354 kts | 129° |
| 2026-04-30 22:02 | 44.43106 | 26.51234 | 14223 ft | 359 kts | 129° |
| 2026-04-30 22:02 | 44.41483 | 26.53918 | 14936 ft | 363 kts | 129° |
| 2026-04-30 22:03 | 44.39845 | 26.56616 | 15630 ft | 366 kts | 130° |
| 2026-04-30 22:03 | 44.38185 | 26.59349 | 16300 ft | 371 kts | 130° |
| 2026-04-30 22:03 | 44.36503 | 26.62114 | 16962 ft | 375 kts | 131° |
| 2026-04-30 22:03 | 44.34824 | 26.64875 | 17628 ft | 379 kts | 131° |
| 2026-04-30 22:04 | 44.33665 | 26.66781 | 18074 ft | 382 kts | 131° |
| 2026-04-30 22:04 | 44.31936 | 26.69618 | 18714 ft | 386 kts | 131° |
| 2026-04-30 22:04 | 44.28399 | 26.75399 | 19770 ft | 395 kts | 132° |
| 2026-04-30 22:05 | 44.26598 | 26.78340 | 20278 ft | 400 kts | 133° |
| 2026-04-30 22:05 | 44.24805 | 26.81268 | 20769 ft | 405 kts | 133° |
| 2026-04-30 22:05 | 44.22961 | 26.84279 | 21271 ft | 410 kts | 133° |
| 2026-04-30 22:05 | 44.21098 | 26.87320 | 21766 ft | 414 kts | 133° |
| 2026-04-30 22:06 | 44.19218 | 26.90389 | 22249 ft | 419 kts | 134° |
| 2026-04-30 22:06 | 44.15390 | 26.96627 | 23194 ft | 428 kts | 135° |
| 2026-04-30 22:06 | 44.13448 | 26.99782 | 23730 ft | 431 kts | 135° |
| 2026-04-30 22:07 | 44.11485 | 27.02964 | 24150 ft | 435 kts | 135° |
| 2026-04-30 22:07 | 44.09507 | 27.06172 | 24552 ft | 438 kts | 135° |
| 2026-04-30 22:07 | 44.07517 | 27.09399 | 24961 ft | 441 kts | 135° |
| 2026-04-30 22:07 | 44.05513 | 27.12647 | 25368 ft | 444 kts | 135° |
| 2026-04-30 22:08 | 44.03492 | 27.15912 | 25729 ft | 447 kts | 135° |
| 2026-04-30 22:08 | 44.01456 | 27.19195 | 26116 ft | 450 kts | 135° |
| 2026-04-30 22:08 | 43.99406 | 27.22501 | 26503 ft | 452 kts | 137° |
| 2026-04-30 22:08 | 43.97347 | 27.25820 | 26901 ft | 455 kts | 137° |
| 2026-04-30 22:09 | 43.95278 | 27.29154 | 27291 ft | 457 kts | 137° |
| 2026-04-30 22:09 | 43.93191 | 27.32510 | 27668 ft | 460 kts | 137° |
| 2026-04-30 22:09 | 43.91091 | 27.35877 | 28042 ft | 463 kts | 137° |
| 2026-04-30 22:09 | 43.88973 | 27.39268 | 28415 ft | 466 kts | 137° |
| 2026-04-30 22:10 | 43.86847 | 27.42668 | 28769 ft | 468 kts | 137° |
| 2026-04-30 22:10 | 43.84705 | 27.46094 | 29087 ft | 471 kts | 138° |
| 2026-04-30 22:10 | 43.82559 | 27.49528 | 29447 ft | 473 kts | 139° |
| 2026-04-30 22:10 | 43.80402 | 27.52978 | 29783 ft | 474 kts | 138° |
| 2026-04-30 22:11 | 43.76044 | 27.59905 | 30391 ft | 480 kts | 139° |
| 2026-04-30 22:11 | 43.73846 | 27.63387 | 30650 ft | 482 kts | 139° |
| 2026-04-30 22:11 | 43.71635 | 27.66891 | 30914 ft | 484 kts | 138° |
| 2026-04-30 22:12 | 43.69423 | 27.70402 | 31251 ft | 484 kts | 138° |
| 2026-04-30 22:12 | 43.67208 | 27.73923 | 31537 ft | 484 kts | 139° |
| 2026-04-30 22:12 | 43.64997 | 27.77437 | 31834 ft | 485 kts | 139° |
| 2026-04-30 22:12 | 43.62776 | 27.80946 | 32166 ft | 486 kts | 139° |
| 2026-04-30 22:13 | 43.60549 | 27.84460 | 32506 ft | 487 kts | 138° |
| 2026-04-30 22:13 | 43.58395 | 27.88005 | 32836 ft | 489 kts | 136° |
| 2026-04-30 22:13 | 43.56275 | 27.91683 | 33185 ft | 490 kts | 135° |
| 2026-04-30 22:13 | 43.54196 | 27.95415 | 33522 ft | 491 kts | 134° |
| 2026-04-30 22:14 | 43.52122 | 27.99182 | 33828 ft | 493 kts | 134° |
| 2026-04-30 22:14 | 43.50041 | 28.02941 | 34124 ft | 494 kts | 134° |
| 2026-04-30 22:14 | 43.47938 | 28.06692 | 34409 ft | 495 kts | 134° |
| 2026-04-30 22:14 | 43.45818 | 28.10424 | 34711 ft | 494 kts | 134° |
| 2026-04-30 22:15 | 43.43690 | 28.14129 | 35030 ft | 493 kts | 134° |
| 2026-04-30 22:15 | 43.41551 | 28.17827 | 35366 ft | 492 kts | 134° |
| 2026-04-30 22:15 | 43.39424 | 28.21496 | 35646 ft | 491 kts | 134° |
| 2026-04-30 22:15 | 43.37295 | 28.25172 | 35940 ft | 490 kts | 134° |
| 2026-04-30 22:16 | 43.35174 | 28.28844 | 36190 ft | 490 kts | 134° |
| 2026-04-30 22:16 | 43.33054 | 28.32513 | 36435 ft | 489 kts | 133° |
| 2026-04-30 22:17 | 43.26733 | 28.43466 | 37157 ft | 487 kts | 133° |
| 2026-04-30 22:17 | 43.20445 | 28.54311 | 37245 ft | 486 kts | 133° |
| 2026-04-30 22:18 | 43.14124 | 28.65162 | 37233 ft | 486 kts | 133° |
| 2026-04-30 22:19 | 43.09715 | 28.72196 | 37219 ft | 478 kts | 144° |
| 2026-04-30 22:19 | 43.07143 | 28.74897 | 37235 ft | 468 kts | 154° |
| 2026-04-30 22:19 | 43.01290 | 28.78286 | 37224 ft | 449 kts | 174° |
| 2026-04-30 22:20 | 42.98233 | 28.78904 | 37219 ft | 440 kts | 184° |
| 2026-04-30 22:20 | 42.89133 | 28.78724 | 37207 ft | 436 kts | 188° |
| 2026-04-30 22:21 | 42.83060 | 28.78570 | 37213 ft | 436 kts | 187° |
| 2026-04-30 22:21 | 42.76989 | 28.78422 | 37193 ft | 436 kts | 188° |
| 2026-04-30 22:22 | 42.70923 | 28.78268 | 37217 ft | 435 kts | 188° |
| 2026-04-30 22:22 | 42.64875 | 28.78109 | 37217 ft | 434 kts | 188° |
| 2026-04-30 22:23 | 42.58827 | 28.77945 | 37198 ft | 434 kts | 188° |
| 2026-04-30 22:23 | 42.52796 | 28.77778 | 37207 ft | 433 kts | 188° |
| 2026-04-30 22:24 | 42.46774 | 28.77618 | 37200 ft | 433 kts | 188° |
| 2026-04-30 22:24 | 42.40752 | 28.77464 | 37199 ft | 432 kts | 188° |
| 2026-04-30 22:25 | 42.34780 | 28.77308 | 37171 ft | 432 kts | 188° |
| 2026-04-30 22:25 | 42.28770 | 28.77152 | 37173 ft | 432 kts | 188° |
| 2026-04-30 22:26 | 42.19761 | 28.76917 | 37155 ft | 432 kts | 188° |
| 2026-04-30 22:27 | 42.13747 | 28.76759 | 37161 ft | 432 kts | 188° |
| 2026-04-30 22:27 | 42.04708 | 28.76616 | 37138 ft | 435 kts | 186° |
| 2026-04-30 22:28 | 41.95622 | 28.77053 | 37135 ft | 438 kts | 185° |
| 2026-04-30 22:29 | 41.86458 | 28.77495 | 36833 ft | 440 kts | 186° |
| 2026-04-30 22:29 | 41.83401 | 28.77613 | 36570 ft | 439 kts | 186° |
| 2026-04-30 22:30 | 41.71969 | 28.74257 | 33794 ft | 411 kts | 217° |
| 2026-04-30 22:31 | 41.64646 | 28.68146 | 30791 ft | 416 kts | 217° |
| 2026-04-30 22:32 | 41.57331 | 28.62075 | 28822 ft | 400 kts | 217° |
| 2026-04-30 22:32 | 41.52663 | 28.58208 | 27839 ft | 389 kts | 217° |
| 2026-04-30 22:33 | 41.45863 | 28.52567 | 26434 ft | 384 kts | 217° |
| 2026-04-30 22:33 | 41.41333 | 28.48809 | 25645 ft | 382 kts | 217° |
| 2026-04-30 22:34 | 41.34648 | 28.43277 | 24387 ft | 376 kts | 216° |
| 2026-04-30 22:35 | 41.30234 | 28.39646 | 23602 ft | 371 kts | 216° |
| 2026-04-30 22:36 | 41.21558 | 28.32525 | 22091 ft | 362 kts | 216° |
| 2026-04-30 22:36 | 41.19419 | 28.30771 | 21822 ft | 361 kts | 217° |
| 2026-04-30 22:37 | 41.13057 | 28.25561 | 20963 ft | 351 kts | 216° |
| 2026-04-30 22:37 | 41.10998 | 28.23878 | 20529 ft | 345 kts | 216° |
| 2026-04-30 22:37 | 41.06958 | 28.20622 | 19645 ft | 337 kts | 213° |
| 2026-04-30 22:38 | 41.02409 | 28.18971 | 18799 ft | 353 kts | 189° |
| 2026-04-30 22:38 | 40.97348 | 28.19832 | 17946 ft | 372 kts | 175° |
| 2026-04-30 22:39 | 40.94815 | 28.20501 | 17530 ft | 370 kts | 175° |
| 2026-04-30 22:39 | 40.87303 | 28.22489 | 16325 ft | 364 kts | 175° |
| 2026-04-30 22:40 | 40.79915 | 28.24410 | 15102 ft | 358 kts | 174° |
| 2026-04-30 22:41 | 40.72961 | 28.28398 | 13880 ft | 365 kts | 158° |
| 2026-04-30 22:41 | 40.69200 | 28.32878 | 12989 ft | 376 kts | 126° |
| 2026-04-30 22:42 | 40.68087 | 28.46188 | 11604 ft | 354 kts | 79° |
| 2026-04-30 22:43 | 40.69096 | 28.52295 | 11262 ft | 328 kts | 79° |
| 2026-04-30 22:43 | 40.70044 | 28.58071 | 10402 ft | 318 kts | 80° |
| 2026-04-30 22:44 | 40.70961 | 28.63700 | 9461 ft | 310 kts | 80° |
| 2026-04-30 22:45 | 40.72706 | 28.74452 | 6963 ft | 292 kts | 79° |
| 2026-04-30 22:45 | 40.73397 | 28.78749 | 6020 ft | 285 kts | 78° |
| 2026-04-30 22:46 | 40.74202 | 28.83760 | 5403 ft | 273 kts | 77° |
| 2026-04-30 22:47 | 40.75684 | 28.93043 | 4517 ft | 237 kts | 76° |
| 2026-04-30 22:47 | 40.76329 | 28.97112 | 4252 ft | 218 kts | 76° |
| 2026-04-30 22:48 | 40.77001 | 29.00942 | 4004 ft | 213 kts | 67° |
| 2026-04-30 22:49 | 40.79498 | 29.05648 | 3785 ft | 203 kts | 51° |
| 2026-04-30 22:49 | 40.81958 | 29.09905 | 3485 ft | 192 kts | 56° |
| 2026-04-30 22:50 | 40.84207 | 29.15644 | 2983 ft | 164 kts | 60° |
| 2026-04-30 22:51 | 40.85186 | 29.18282 | 2499 ft | 157 kts | 60° |
| 2026-04-30 22:51 | 40.86123 | 29.20814 | 2023 ft | 146 kts | 60° |
| 2026-04-30 22:52 | 40.86544 | 29.21958 | 1789 ft | 133 kts | 60° |
| 2026-04-30 22:52 | 40.87343 | 29.24112 | 1361 ft | 129 kts | 61° |
| 2026-04-30 22:53 | 40.88130 | 29.26241 | 953 ft | 128 kts | 63° |
| 2026-04-30 22:53 | 40.88914 | 29.28352 | 538 ft | 126 kts | 63° |
| 2026-04-30 22:53 | 40.89295 | 29.29397 | 368 ft | 126 kts | 63° |
| 2026-04-30 22:54 | 40.89881 | 29.30990 | 320 ft | 51 kts | 64° |
| 2026-04-30 22:55 | 40.90229 | 29.31437 | 320 ft | 12 kts | 38° |
| 2026-04-30 22:55 | 40.90401 | 29.31445 | 321 ft | 14 kts | 334° |
| 2026-04-30 22:56 | 40.90499 | 29.31573 | 320 ft | 13 kts | 64° |
| 2026-04-30 22:56 | 40.90619 | 29.31746 | 321 ft | 6 kts | 334° |
| 2026-04-30 22:57 | 40.90645 | 29.31730 | 321 ft | 0 kts | 334° |